createdAt,value
2023-04-17T00:01:40.625Z,6.27
2023-04-17T00:04:11.343Z,6.24
2023-04-17T00:06:43.455Z,6.24
2023-04-17T00:09:11.953Z,6.24
2023-04-17T00:11:39.309Z,6.24
2023-04-17T00:14:06.692Z,6.21
2023-04-17T00:16:33.872Z,6.19
2023-04-17T00:19:01.029Z,6.19
2023-04-17T00:21:29.875Z,6.14
2023-04-17T00:23:57.076Z,6.15
2023-04-17T00:26:24.410Z,6.13
2023-04-17T00:28:51.968Z,6.09
2023-04-17T00:31:19.361Z,6.11
2023-04-17T00:33:46.597Z,6.13
2023-04-17T00:36:15.398Z,6.10
2023-04-17T00:38:42.678Z,6.12
2023-04-17T00:41:10.036Z,6.12
2023-04-17T00:43:37.483Z,6.06
2023-04-17T00:46:05.011Z,6.09
2023-04-17T00:48:33.113Z,6.09
2023-04-17T00:51:03.352Z,6.06
2023-04-17T00:53:31.188Z,6.05
2023-04-17T00:56:03.536Z,6.04
2023-04-17T00:58:30.954Z,6.05
2023-04-17T01:00:58.329Z,6.06
2023-04-17T01:03:25.668Z,5.99
2023-04-17T01:05:53.075Z,6.05
2023-04-17T01:08:20.318Z,6.06
2023-04-17T01:10:47.887Z,6.06
2023-04-17T01:13:14.932Z,6.04
2023-04-17T01:15:43.667Z,6.04
2023-04-17T01:18:11.327Z,6.01
2023-04-17T01:20:38.450Z,6.01
2023-04-17T01:23:05.832Z,5.98
2023-04-17T01:25:33.789Z,5.97
2023-04-17T01:28:01.303Z,5.96
2023-04-17T01:30:29.636Z,5.98
2023-04-17T01:33:06.086Z,5.96
2023-04-17T01:35:33.165Z,5.93
2023-04-17T01:38:00.349Z,5.95
2023-04-17T01:40:27.991Z,5.97
2023-04-17T01:42:55.035Z,5.97
2023-04-17T01:45:22.116Z,5.95
2023-04-17T01:47:50.815Z,5.94
2023-04-17T01:50:18.121Z,5.88
2023-04-17T01:52:45.534Z,5.88
2023-04-17T01:55:12.762Z,5.88
2023-04-17T01:57:39.788Z,5.86
2023-04-17T02:00:08.236Z,5.88
2023-04-17T02:02:39.757Z,5.85
2023-04-17T02:05:07.510Z,5.90
2023-04-17T02:07:34.610Z,5.89
2023-04-17T02:10:01.748Z,5.88
2023-04-17T02:12:28.762Z,5.87
2023-04-17T02:15:00.877Z,5.83
2023-04-17T02:17:28.037Z,5.81
2023-04-17T02:19:55.344Z,5.80
2023-04-17T02:22:22.482Z,5.80
2023-04-17T02:24:49.568Z,5.78
2023-04-17T02:27:17.417Z,5.76
2023-04-17T02:29:44.464Z,5.75
2023-04-17T02:32:11.544Z,5.72
2023-04-17T02:34:38.603Z,5.72
2023-04-17T02:37:07.171Z,5.68
2023-04-17T02:39:36.237Z,5.65
2023-04-17T02:42:03.414Z,5.68
2023-04-17T02:44:30.701Z,5.64
2023-04-17T02:46:58.098Z,5.64
2023-04-17T02:49:26.820Z,5.63
2023-04-17T02:51:54.085Z,5.63
2023-04-17T02:57:22.191Z,5.63
2023-04-17T02:59:51.518Z,5.64
2023-04-17T03:02:22.073Z,5.65
2023-04-17T03:04:50.561Z,5.64
2023-04-17T03:07:19.886Z,5.64
2023-04-17T03:09:47.344Z,5.63
2023-04-17T03:12:15.241Z,5.63
2023-04-17T03:14:42.679Z,5.62
2023-04-17T03:17:10.741Z,5.64
2023-04-17T03:19:38.060Z,5.64
2023-04-17T03:22:05.782Z,5.62
2023-04-17T03:24:33.495Z,5.59
2023-04-17T03:27:02.342Z,5.56
2023-04-17T03:29:36.899Z,5.55
2023-04-17T03:32:04.455Z,5.55
2023-04-17T03:34:33.139Z,5.54
2023-04-17T03:37:00.500Z,5.53
2023-04-17T03:39:29.795Z,5.52
2023-04-17T03:41:56.843Z,5.51
2023-04-17T03:44:24.016Z,5.52
2023-04-17T03:46:51.069Z,5.52
2023-04-17T03:49:18.355Z,5.48
2023-04-17T03:51:45.933Z,5.51
2023-04-17T03:54:18.236Z,5.54
2023-04-17T03:56:48.146Z,5.54
2023-04-17T03:59:15.294Z,5.49
2023-04-17T04:01:46.898Z,5.48
2023-04-17T04:04:20.487Z,5.43
2023-04-17T04:06:49.901Z,5.44
2023-04-17T04:09:20.349Z,5.38
2023-04-17T04:11:47.472Z,5.37
2023-04-17T04:14:14.741Z,5.35
2023-04-17T04:16:42.254Z,5.28
2023-04-17T04:19:12.188Z,5.25
2023-04-17T04:21:39.539Z,5.24
2023-04-17T04:24:10.238Z,5.25
2023-04-17T04:26:40.905Z,5.21
2023-04-17T04:29:09.548Z,5.16
2023-04-17T04:31:50.834Z,5.17
2023-04-17T04:34:21.668Z,5.12
2023-04-17T04:36:51.786Z,5.13
2023-04-17T04:39:34.221Z,5.14
2023-04-17T04:42:06.191Z,5.15
2023-04-17T04:44:44.503Z,5.14
2023-04-17T04:47:11.920Z,5.15
2023-04-17T04:49:39.203Z,5.15
2023-04-17T04:52:06.643Z,5.15
2023-04-17T04:54:34.543Z,5.13
2023-04-17T04:57:02.464Z,5.11
2023-04-17T04:59:29.514Z,5.18
2023-04-17T05:02:12.807Z,5.20
2023-04-17T05:04:40.203Z,5.19
2023-04-17T05:07:07.633Z,5.21
2023-04-17T05:09:36.198Z,5.24
2023-04-17T05:12:04.546Z,5.28
2023-04-17T05:14:31.690Z,5.33
2023-04-17T05:16:58.901Z,5.37
2023-04-17T05:19:27.444Z,5.39
2023-04-17T05:21:59.439Z,5.43
2023-04-17T05:24:26.623Z,5.44
2023-04-17T05:26:54.105Z,5.46
2023-04-17T05:29:21.187Z,5.47
2023-04-17T05:31:48.260Z,5.48
2023-04-17T05:34:44.325Z,5.52
2023-04-17T05:37:11.443Z,5.54
2023-04-17T05:39:38.911Z,5.56
2023-04-17T05:42:08.181Z,5.61
2023-04-17T05:44:35.324Z,5.62
2023-04-17T05:47:03.472Z,5.64
2023-04-17T05:49:31.071Z,5.69
2023-04-17T05:51:58.287Z,5.70
2023-04-17T05:54:25.434Z,5.73
2023-04-17T05:56:53.094Z,5.75
2023-04-17T05:59:21.099Z,5.78
2023-04-17T06:01:48.767Z,5.83
2023-04-17T06:04:19.980Z,5.89
2023-04-17T06:06:48.894Z,5.92
2023-04-17T06:09:16.464Z,5.95
2023-04-17T06:11:43.541Z,5.98
2023-04-17T06:14:10.869Z,6.05
2023-04-17T06:16:38.809Z,6.02
2023-04-17T06:19:05.849Z,6.09
2023-04-17T06:21:32.893Z,6.09
2023-04-17T06:24:01.040Z,6.23
2023-04-17T06:26:28.181Z,6.25
2023-04-17T06:28:55.767Z,6.34
2023-04-17T06:31:23.954Z,6.32
2023-04-17T06:33:51.639Z,6.35
2023-04-17T06:36:23.374Z,6.37
2023-04-17T06:38:54.706Z,6.39
2023-04-17T06:41:22.459Z,6.38
2023-04-17T06:43:49.658Z,6.47
2023-04-17T06:46:16.803Z,6.42
2023-04-17T06:48:43.942Z,6.47
2023-04-17T06:51:11.106Z,6.49
2023-04-17T06:53:38.164Z,6.54
2023-04-17T06:56:05.366Z,6.59
2023-04-17T06:58:33.178Z,6.68
2023-04-17T07:01:00.229Z,6.73
2023-04-17T07:03:27.492Z,6.79
2023-04-17T07:05:54.649Z,6.84
2023-04-17T07:08:22.554Z,6.86
2023-04-17T07:10:49.746Z,6.87
2023-04-17T07:13:16.815Z,6.94
2023-04-17T07:15:43.973Z,6.97
2023-04-17T07:18:11.459Z,7.09
2023-04-17T07:20:38.582Z,7.17
2023-04-17T07:23:05.699Z,7.43
2023-04-17T07:25:32.741Z,7.53
2023-04-17T07:27:59.830Z,7.58
2023-04-17T07:30:27.135Z,7.72
2023-04-17T07:32:54.407Z,8.04
2023-04-17T07:35:22.468Z,8.16
2023-04-17T07:37:49.605Z,8.42
2023-04-17T07:40:16.903Z,8.50
2023-04-17T07:42:44.084Z,8.68
2023-04-17T07:45:11.433Z,8.70
2023-04-17T07:47:38.613Z,8.82
2023-04-17T07:50:06.222Z,8.82
2023-04-17T07:52:33.371Z,8.59
2023-04-17T07:55:00.450Z,8.94
2023-04-17T07:57:27.565Z,9.02
2023-04-17T07:59:54.694Z,8.96
2023-04-17T08:02:23.058Z,9.03
2023-04-17T08:04:52.300Z,8.94
2023-04-17T08:07:20.245Z,8.89
2023-04-17T08:09:47.332Z,8.99
2023-04-17T08:12:14.469Z,9.17
2023-04-17T08:14:42.035Z,9.74
2023-04-17T08:17:09.270Z,10.08
2023-04-17T08:19:36.353Z,10.74
2023-04-17T08:22:04.384Z,10.77
2023-04-17T08:24:31.848Z,10.01
2023-04-17T08:26:58.976Z,9.56
2023-04-17T08:29:26.303Z,9.44
2023-04-17T08:32:00.229Z,9.18
2023-04-17T08:34:38.763Z,9.17
2023-04-17T08:37:05.839Z,9.81
2023-04-17T08:39:32.986Z,9.91
2023-04-17T08:42:03.421Z,9.43
2023-04-17T08:44:30.552Z,9.60
2023-04-17T08:47:00.943Z,9.68
2023-04-17T08:49:29.045Z,10.06
2023-04-17T08:51:56.264Z,10.12
2023-04-17T08:54:23.332Z,10.17
2023-04-17T08:56:50.537Z,10.05
2023-04-17T09:01:59.276Z,9.88
2023-04-17T09:04:40.145Z,9.71
2023-04-17T09:07:08.435Z,9.61
2023-04-17T09:09:47.760Z,9.50
2023-04-17T09:12:15.021Z,9.43
2023-04-17T09:14:42.286Z,9.36
2023-04-17T09:17:09.409Z,9.38
2023-04-17T09:19:36.636Z,9.40
2023-04-17T09:22:20.008Z,9.44
2023-04-17T09:24:48.141Z,9.49
2023-04-17T09:27:24.346Z,9.50
2023-04-17T09:30:01.655Z,9.47
2023-04-17T09:32:30.222Z,9.50
2023-04-17T09:34:58.182Z,9.46
2023-04-17T09:37:25.720Z,9.50
2023-04-17T09:39:57.679Z,9.46
2023-04-17T09:42:24.988Z,9.37
2023-04-17T09:44:52.966Z,9.60
2023-04-17T09:47:20.631Z,9.66
2023-04-17T09:49:55.999Z,9.43
2023-04-17T09:52:23.803Z,9.68
2023-04-17T09:54:53.968Z,9.69
2023-04-17T09:57:21.412Z,9.88
2023-04-17T09:59:48.982Z,9.98
2023-04-17T10:02:18.188Z,9.79
2023-04-17T10:04:46.269Z,9.76
2023-04-17T10:07:14.024Z,9.88
2023-04-17T10:09:41.994Z,10.01
2023-04-17T10:12:13.950Z,9.82
2023-04-17T10:14:44.041Z,9.83
2023-04-17T10:17:23.891Z,9.88
2023-04-17T10:19:51.290Z,9.84
2023-04-17T10:22:18.386Z,9.77
2023-04-17T10:24:47.355Z,9.84
2023-04-17T10:27:31.092Z,9.89
2023-04-17T10:29:59.135Z,9.78
2023-04-17T10:32:28.956Z,9.88
2023-04-17T10:35:00.894Z,9.82
2023-04-17T10:37:46.847Z,9.71
2023-04-17T10:40:20.665Z,9.62
2023-04-17T10:43:04.352Z,9.40
2023-04-17T10:45:50.260Z,9.25
2023-04-17T10:48:28.379Z,9.17
2023-04-17T10:50:56.140Z,9.26
2023-04-17T10:53:40.379Z,9.38
2023-04-17T10:56:08.067Z,9.54
2023-04-17T10:58:56.666Z,9.56
2023-04-17T11:01:26.098Z,9.87
2023-04-17T11:03:53.907Z,9.83
2023-04-17T11:06:21.135Z,9.75
2023-04-17T11:08:48.593Z,9.78
2023-04-17T11:11:21.002Z,9.72
2023-04-17T11:13:57.803Z,9.72
2023-04-17T11:16:24.977Z,9.72
2023-04-17T11:18:52.158Z,9.71
2023-04-17T11:21:19.219Z,9.62
2023-04-17T11:23:51.135Z,9.71
2023-04-17T11:26:18.713Z,9.79
2023-04-17T11:28:45.831Z,9.84
2023-04-17T11:31:13.595Z,9.90
2023-04-17T11:33:40.946Z,9.99
2023-04-17T11:36:08.186Z,10.24
2023-04-17T11:38:35.585Z,10.40
2023-04-17T11:41:02.856Z,10.57
2023-04-17T11:43:34.934Z,10.49
2023-04-17T11:46:02.828Z,10.45
2023-04-17T11:48:30.226Z,10.43
2023-04-17T11:50:58.510Z,10.42
2023-04-17T11:53:25.662Z,10.31
2023-04-17T11:56:11.868Z,10.49
2023-04-17T11:58:45.920Z,10.41
2023-04-17T12:01:13.419Z,10.44
2023-04-17T12:03:41.861Z,10.48
2023-04-17T12:06:11.984Z,10.49
2023-04-17T12:08:45.056Z,10.62
2023-04-17T12:11:15.488Z,10.48
2023-04-17T12:13:42.620Z,10.61
2023-04-17T12:16:10.034Z,10.62
2023-04-17T12:18:37.136Z,10.78
2023-04-17T12:21:04.391Z,10.77
2023-04-17T12:23:31.434Z,10.85
2023-04-17T12:25:58.512Z,11.14
2023-04-17T12:28:25.648Z,11.09
2023-04-17T12:30:52.761Z,11.23
2023-04-17T12:33:19.840Z,11.01
2023-04-17T12:35:46.997Z,10.76
2023-04-17T12:38:14.085Z,10.92
2023-04-17T12:40:43.297Z,11.02
2023-04-17T12:43:11.332Z,10.91
2023-04-17T12:45:39.876Z,10.99
2023-04-17T12:48:09.309Z,10.49
2023-04-17T12:50:42.209Z,10.47
2023-04-17T12:53:09.972Z,10.54
2023-04-17T12:55:41.146Z,10.46
2023-04-17T12:58:10.093Z,10.65
2023-04-17T13:00:37.956Z,10.44
2023-04-17T13:03:05.675Z,10.91
2023-04-17T13:05:33.116Z,10.76
2023-04-17T13:08:00.484Z,11.00
2023-04-17T13:10:27.989Z,11.03
2023-04-17T13:12:55.151Z,11.11
2023-04-17T13:15:22.386Z,11.15
2023-04-17T13:17:49.447Z,10.96
2023-04-17T13:20:16.545Z,11.21
2023-04-17T13:22:43.624Z,11.17
2023-04-17T13:25:10.677Z,11.02
2023-04-17T13:27:37.798Z,10.96
2023-04-17T13:30:05.129Z,10.81
2023-04-17T13:32:32.334Z,10.94
2023-04-17T13:34:59.381Z,10.88
2023-04-17T13:37:26.543Z,10.60
2023-04-17T13:39:53.810Z,10.70
2023-04-17T13:42:21.085Z,10.69
2023-04-17T13:44:49.396Z,10.45
2023-04-17T13:47:16.486Z,10.48
2023-04-17T13:49:43.621Z,10.34
2023-04-17T13:52:10.785Z,10.48
2023-04-17T13:54:37.818Z,10.61
2023-04-17T13:57:05.540Z,10.56
2023-04-17T13:59:32.559Z,10.38
2023-04-17T14:02:01.611Z,10.28
2023-04-17T14:04:29.040Z,10.30
2023-04-17T14:06:56.558Z,10.21
2023-04-17T14:09:23.737Z,10.18
2023-04-17T14:11:50.959Z,10.03
2023-04-17T14:14:17.972Z,10.08
2023-04-17T14:16:47.317Z,9.90
2023-04-17T14:19:15.069Z,9.91
2023-04-17T14:21:42.639Z,9.77
2023-04-17T14:24:09.720Z,9.71
2023-04-17T14:26:37.583Z,9.74
2023-04-17T14:29:04.765Z,9.77
2023-04-17T14:31:31.930Z,9.73
2023-04-17T14:33:59.096Z,9.69
2023-04-17T14:36:26.324Z,9.55
2023-04-17T14:38:54.214Z,9.54
2023-04-17T14:41:21.434Z,9.43
2023-04-17T14:43:48.564Z,9.32
2023-04-17T14:46:15.770Z,9.21
2023-04-17T14:48:54.678Z,9.21
2023-04-17T14:51:23.399Z,9.26
2023-04-17T14:53:51.215Z,9.24
2023-04-17T14:56:18.810Z,9.24
2023-04-17T14:58:45.916Z,9.11
2023-04-17T15:01:13.142Z,9.13
2023-04-17T15:03:40.580Z,9.08
2023-04-17T15:06:08.818Z,9.09
2023-04-17T15:08:35.912Z,9.12
2023-04-17T15:11:02.954Z,9.07
2023-04-17T15:13:29.992Z,9.07
2023-04-17T15:15:57.222Z,9.11
2023-04-17T15:18:24.415Z,9.17
2023-04-17T15:20:51.481Z,9.11
2023-04-17T15:23:18.863Z,9.09
2023-04-17T15:25:45.912Z,9.14
2023-04-17T15:28:12.977Z,9.15
2023-04-17T15:30:40.078Z,9.14
2023-04-17T15:33:09.233Z,9.12
2023-04-17T15:35:37.704Z,9.09
2023-04-17T15:38:06.128Z,9.05
2023-04-17T15:40:33.828Z,8.99
2023-04-17T15:43:01.429Z,8.97
2023-04-17T15:45:28.515Z,8.83
2023-04-17T15:47:56.250Z,8.73
2023-04-17T15:50:23.476Z,8.65
2023-04-17T15:52:50.854Z,8.65
2023-04-17T15:55:17.978Z,8.77
2023-04-17T15:57:45.082Z,8.82
2023-04-17T16:00:12.428Z,8.85
2023-04-17T16:02:39.680Z,8.87
2023-04-17T16:05:07.093Z,8.87
2023-04-17T16:07:34.156Z,8.81
2023-04-17T16:10:01.228Z,8.78
2023-04-17T16:12:28.398Z,8.79
2023-04-17T16:14:55.462Z,8.66
2023-04-17T16:17:22.579Z,8.75
2023-04-17T16:19:50.704Z,8.65
2023-04-17T16:22:18.395Z,8.54
2023-04-17T16:24:45.518Z,8.53
2023-04-17T16:27:12.563Z,8.58
2023-04-17T16:29:39.614Z,8.68
2023-04-17T16:32:06.701Z,8.74
2023-04-17T16:34:33.756Z,8.72
2023-04-17T16:37:00.891Z,8.81
2023-04-17T16:39:27.946Z,8.80
2023-04-17T16:41:56.220Z,8.83
2023-04-17T16:44:25.129Z,8.82
2023-04-17T16:47:12.014Z,8.82
2023-04-17T16:49:39.184Z,8.77
2023-04-17T16:52:06.316Z,8.78
2023-04-17T16:54:33.351Z,8.79
2023-04-17T16:57:00.628Z,8.75
2023-04-17T16:59:27.698Z,8.72
2023-04-17T17:01:54.825Z,8.74
2023-04-17T17:04:21.959Z,8.70
2023-04-17T17:06:49.106Z,8.64
2023-04-17T17:09:16.325Z,8.64
2023-04-17T17:11:43.379Z,8.62
2023-04-17T17:14:10.472Z,8.58
2023-04-17T17:16:37.626Z,8.58
2023-04-17T17:19:05.900Z,8.57
2023-04-17T17:21:33.001Z,8.53
2023-04-17T17:24:00.594Z,8.51
2023-04-17T17:26:27.635Z,8.49
2023-04-17T17:28:55.960Z,8.44
2023-04-17T17:31:23.199Z,8.37
2023-04-17T17:33:52.881Z,8.33
2023-04-17T17:36:21.641Z,8.35
2023-04-17T17:38:55.591Z,8.30
2023-04-17T17:41:23.636Z,8.21
2023-04-17T17:43:50.897Z,8.22
2023-04-17T17:46:19.433Z,8.14
2023-04-17T17:48:46.651Z,8.10
2023-04-17T17:51:13.764Z,8.03
2023-04-17T17:53:41.387Z,8.01
2023-04-17T17:56:08.482Z,7.96
2023-04-17T17:58:35.541Z,7.87
2023-04-17T18:01:02.868Z,7.81
2023-04-17T18:03:30.084Z,7.78
2023-04-17T18:05:57.571Z,7.76
2023-04-17T18:08:24.665Z,7.72
2023-04-17T18:10:51.756Z,7.68
2023-04-17T18:13:18.879Z,7.61
2023-04-17T18:15:46.000Z,7.58
2023-04-17T18:18:13.077Z,7.60
2023-04-17T18:20:40.461Z,7.62
2023-04-17T18:23:07.588Z,7.56
2023-04-17T18:25:35.950Z,7.51
2023-04-17T18:28:03.818Z,7.51
2023-04-17T18:30:30.993Z,7.52
2023-04-17T18:32:58.141Z,7.47
2023-04-17T18:35:25.255Z,7.46
2023-04-17T18:37:53.095Z,7.38
2023-04-17T18:40:20.392Z,7.37
2023-04-17T18:42:47.512Z,7.32
2023-04-17T18:45:15.943Z,7.29
2023-04-17T18:47:43.427Z,7.39
2023-04-17T18:50:11.430Z,7.17
2023-04-17T18:52:39.994Z,7.21
2023-04-17T18:55:07.702Z,7.10
2023-04-17T18:57:34.840Z,7.03
2023-04-17T19:00:01.915Z,7.03
2023-04-17T19:02:29.175Z,6.92
2023-04-17T19:04:56.534Z,6.88
2023-04-17T19:07:23.661Z,6.90
2023-04-17T19:09:50.698Z,6.83
2023-04-17T19:12:17.819Z,6.79
2023-04-17T19:14:44.922Z,6.76
2023-04-17T19:17:12.704Z,6.81
2023-04-17T19:19:39.781Z,6.77
2023-04-17T19:22:06.870Z,6.78
2023-04-17T19:24:33.903Z,6.78
2023-04-17T19:27:01.928Z,6.77
2023-04-17T19:29:28.987Z,6.76
2023-04-17T19:31:56.252Z,6.75
2023-04-17T19:34:23.371Z,6.78
2023-04-17T19:36:50.612Z,6.73
2023-04-17T19:39:17.743Z,6.67
2023-04-17T19:41:50.687Z,6.65
2023-04-17T19:44:18.099Z,6.73
2023-04-17T19:46:45.294Z,6.72
2023-04-17T19:49:12.903Z,6.75
2023-04-17T19:51:40.153Z,6.69
2023-04-17T19:54:07.777Z,6.67
2023-04-17T19:56:34.974Z,6.69
2023-04-17T19:59:02.666Z,6.56
2023-04-17T20:01:30.109Z,6.51
2023-04-17T20:03:57.788Z,6.43
2023-04-17T20:06:25.460Z,6.39
2023-04-17T20:08:52.572Z,6.44
2023-04-17T20:11:19.771Z,6.43
2023-04-17T20:13:46.827Z,6.44
2023-04-17T20:16:13.904Z,6.31
2023-04-17T20:18:41.749Z,6.30
2023-04-17T20:21:08.842Z,6.34
2023-04-17T20:23:35.988Z,6.37
2023-04-17T20:26:03.363Z,6.31
2023-04-17T20:28:30.588Z,6.25
2023-04-17T20:30:57.771Z,6.31
2023-04-17T20:33:24.930Z,6.29
2023-04-17T20:35:51.991Z,6.19
2023-04-17T20:38:19.052Z,6.13
2023-04-17T20:40:46.098Z,6.11
2023-04-17T20:43:13.218Z,6.14
2023-04-17T20:45:40.255Z,6.10
2023-04-17T20:48:07.494Z,6.13
2023-04-17T20:50:34.562Z,6.04
2023-04-17T20:53:01.631Z,6.02
2023-04-17T20:55:28.714Z,5.87
2023-04-17T20:57:55.926Z,5.80
2023-04-17T21:00:23.095Z,5.72
2023-04-17T21:02:50.294Z,5.77
2023-04-17T21:05:19.215Z,5.67
2023-04-17T21:07:46.321Z,5.62
2023-04-17T21:10:13.354Z,5.63
2023-04-17T21:12:40.477Z,5.75
2023-04-17T21:15:07.962Z,5.78
2023-04-17T21:17:35.003Z,5.76
2023-04-17T21:20:04.385Z,5.60
2023-04-17T21:22:31.491Z,5.65
2023-04-17T21:24:58.541Z,5.63
2023-04-17T21:27:25.577Z,5.58
2023-04-17T21:29:52.625Z,5.42
2023-04-17T21:32:19.728Z,5.55
2023-04-17T21:34:46.796Z,5.50
2023-04-17T21:37:13.822Z,5.56
2023-04-17T21:39:40.901Z,5.49
2023-04-17T21:42:09.720Z,5.54
2023-04-17T21:44:36.758Z,5.49
2023-04-17T21:47:03.882Z,5.51
2023-04-17T21:49:30.922Z,5.55
2023-04-17T21:51:58.073Z,5.54
2023-04-17T21:54:26.760Z,5.51
2023-04-17T21:56:53.925Z,5.66
2023-04-17T21:59:21.016Z,5.66
2023-04-17T22:01:48.134Z,5.62
2023-04-17T22:04:15.330Z,5.68
2023-04-17T22:06:42.725Z,5.60
2023-04-17T22:09:09.862Z,5.75
2023-04-17T22:11:38.000Z,5.63
2023-04-17T22:14:05.286Z,5.69
2023-04-17T22:16:32.404Z,5.70
2023-04-17T22:18:59.506Z,5.71
2023-04-17T22:21:27.101Z,5.73
2023-04-17T22:23:54.124Z,5.69
2023-04-17T22:26:21.328Z,5.69
2023-04-17T22:28:48.383Z,5.63
2023-04-17T22:31:15.823Z,5.62
2023-04-17T22:33:43.223Z,5.72
2023-04-17T22:36:10.478Z,5.72
2023-04-17T22:38:37.516Z,5.80
2023-04-17T22:41:04.833Z,5.79
2023-04-17T22:43:32.008Z,5.76
2023-04-17T22:45:59.120Z,5.76
2023-04-17T22:48:27.701Z,5.69
2023-04-17T22:50:55.747Z,5.75
2023-04-17T22:53:23.037Z,5.75
2023-04-17T22:55:59.680Z,5.70
2023-04-17T22:58:26.727Z,5.73
2023-04-17T23:00:53.815Z,5.80
2023-04-17T23:03:20.862Z,5.73
2023-04-17T23:05:47.980Z,5.77
2023-04-17T23:08:14.990Z,5.72
2023-04-17T23:10:42.114Z,5.73
2023-04-17T23:13:09.162Z,5.72
2023-04-17T23:15:36.240Z,5.76
2023-04-17T23:18:03.402Z,5.74
2023-04-17T23:20:30.539Z,5.73
2023-04-17T23:22:57.573Z,5.70
2023-04-17T23:25:24.610Z,5.67
2023-04-17T23:27:51.681Z,5.70
2023-04-17T23:30:18.740Z,5.68
2023-04-17T23:32:45.964Z,5.55
2023-04-17T23:35:13.091Z,5.56
2023-04-17T23:37:40.417Z,5.55
2023-04-17T23:40:07.889Z,5.52
2023-04-17T23:42:34.950Z,5.47
2023-04-17T23:45:01.973Z,5.52
2023-04-17T23:47:29.086Z,5.35
2023-04-17T23:49:56.158Z,5.43
2023-04-17T23:52:23.249Z,5.41
2023-04-17T23:54:50.381Z,5.39
2023-04-17T23:57:17.496Z,5.39
2023-04-17T23:59:44.550Z,5.33
